Accueil
METAR-TAF:

METAR-TAF

Aéroports :

Kingston, Jamaïque

Aéroport international Norman Manley de Kingston

latitude: 17-56N, longitude: 076-47W, altitude: 3 m

Observation

Le bulletin a été fait il y a 32 minutes, à 11:00 UTC
Vent 15 kt de sud-est
Température 28°C
Humidité 74%
Pression 1012 hPa
Visibilité: 6000 m
Quelques nuages à une hauteur de 2200 ft

METAR: MKJP 241100Z 13015KT 9999 6000E FEW022 28/23 Q1012

Heure: 06:32 (11:32 UTC)

Prévision

Le bulletin a été fait il y a 6 heures et 17 minutes, à 05:15 UTC
Prévision valable du 24 à 06 UTC au 25 à 06 UTC
Vent 5 kt de nord
Visibilité 10 km ou plus
Quelques nuages à une hauteur de 2200 ft
Evoluant progressivement
du 24 à 12 UTC au 24 à 14 UTC
Vent 22 kt de sud-est
Evoluant progressivement
du 25 à 04 UTC au 25 à 06 UTC
Vent 5 kt de nord

TAF: MKJP 240515Z 2406/2506 35005KT 9999 FEW022 BECMG 2412/2414 14022KT BECMG 2504/2506 36005KT

Observations et prévisions météorologiques de plus de 4000 aéroports (messages METAR et TAF).

Les stations disponibles sont représentées par des disques jaunes et rouges sur la carte.

Passer la souris dessus pour voir le nom de la station.

Cliquer dessus pour voir les observations et prévisions météorologiques.

Pour changer de carte: cliquez sur les boutons verts avec une croix noire pour zoomer, sur le bouton vert avec un tiret pour effectuer un zoom arrière, ou sur les flèches vertes pour les cartes adjacentes.


METAR-TAF: